Time;durP1;ratioP1;P1;durP2;ratioP2;P2;SDS_P1;SDS_P2;PMS_P1;PMS_P2;Temp;Humidity;BMP_temperature;BMP_pressure;BME280_temperature;BME280_humidity;BME280_pressure;Samples;Min_cycle;Max_cycle;Signal;HPM_P1;HPM_P2
2022/12/12 00:02:10;;;;;;;14.63;8.13;;;;;;;;;;4754700;30;20127;-69
2022/12/12 00:04:36;;;;;;;14.10;7.85;;;;;;;;;;4755025;30;20051;-69
2022/12/12 00:07:02;;;;;;;48.28;19.88;;;;;;;;;;4754289;30;20052;-69
2022/12/12 00:09:28;;;;;;;132.35;54.47;;;;;;;;;;4753315;30;20047;-69
2022/12/12 00:11:54;;;;;;;100.35;43.45;;;;;;;;;;4753473;30;20063;-69
2022/12/12 00:14:20;;;;;;;55.28;24.55;;;;;;;;;;4753667;30;20048;-69
2022/12/12 00:16:46;;;;;;;52.17;26.45;;;;;;;;;;4754512;30;20052;-69
2022/12/12 00:19:12;;;;;;;42.75;22.95;;;;;;;;;;4753970;30;20087;-69
2022/12/12 00:21:38;;;;;;;39.40;21.48;;;;;;;;;;4753374;30;20052;-69
2022/12/12 00:24:05;;;;;;;24.58;14.25;;;;;;;;;;4754440;30;20051;-69
2022/12/12 00:26:32;;;;;;;34.45;19.50;;;;;;;;;;4754344;30;20040;-69
2022/12/12 00:28:59;;;;;;;31.75;17.70;;;;;;;;;;4754349;30;20052;-69
2022/12/12 00:31:25;;;;;;;47.00;24.50;;;;;;;;;;4754456;30;20072;-69
2022/12/12 00:33:51;;;;;;;44.67;23.33;;;;;;;;;;4754303;30;20047;-69
2022/12/12 00:36:19;;;;;;;38.20;19.90;;;;;;;;;;4754556;30;20051;-69
2022/12/12 00:38:45;;;;;;;28.48;16.73;;;;;;;;;;4754598;30;20078;-69
2022/12/12 00:41:12;;;;;;;29.70;15.60;;;;;;;;;;4754083;30;20523;-69
2022/12/12 00:43:38;;;;;;;23.92;13.90;;;;;;;;;;4754234;30;20077;-69
2022/12/12 00:46:04;;;;;;;26.58;13.60;;;;;;;;;;4753669;30;20566;-70
2022/12/12 00:48:30;;;;;;;23.38;12.55;;;;;;;;;;4754188;30;20043;-69
2022/12/12 00:50:57;;;;;;;16.90;10.07;;;;;;;;;;4753538;30;20051;-69
2022/12/12 00:53:23;;;;;;;18.80;12.30;;;;;;;;;;4754217;30;20044;-69
2022/12/12 00:55:59;;;;;;;18.05;11.02;;;;;;;;;;4753784;30;20048;-69
2022/12/12 00:58:25;;;;;;;13.73;9.27;;;;;;;;;;4754255;30;20044;-69
2022/12/12 01:00:52;;;;;;;14.85;9.45;;;;;;;;;;4753362;30;20513;-69
2022/12/12 01:03:19;;;;;;;12.50;7.97;;;;;;;;;;4754296;30;20053;-69
2022/12/12 01:05:45;;;;;;;15.77;8.55;;;;;;;;;;4753388;30;20048;-69
2022/12/12 01:08:11;;;;;;;12.73;7.72;;;;;;;;;;4753779;30;20047;-69
2022/12/12 01:10:37;;;;;;;9.05;5.45;;;;;;;;;;4753670;30;20051;-69
2022/12/12 01:13:04;;;;;;;18.13;9.38;;;;;;;;;;4753871;30;20133;-69
2022/12/12 01:15:30;;;;;;;102.97;36.17;;;;;;;;;;4756803;30;20072;-69
2022/12/12 01:17:57;;;;;;;78.25;28.05;;;;;;;;;;4756961;30;20102;-69
2022/12/12 01:20:27;;;;;;;64.07;25.00;;;;;;;;;;4757139;30;20052;-69
2022/12/12 01:22:53;;;;;;;34.67;16.05;;;;;;;;;;4757591;30;20054;-69
2022/12/12 01:25:19;;;;;;;18.23;9.35;;;;;;;;;;4757136;30;20044;-69
2022/12/12 01:27:46;;;;;;;21.90;10.82;;;;;;;;;;4756792;30;20405;-69
2022/12/12 01:30:13;;;;;;;19.85;9.57;;;;;;;;;;4757055;30;20055;-69
2022/12/12 01:32:39;;;;;;;22.10;11.25;;;;;;;;;;4757066;30;20048;-69
2022/12/12 01:35:07;;;;;;;20.15;9.68;;;;;;;;;;4756984;30;20052;-69
2022/12/12 01:37:37;;;;;;;18.25;9.25;;;;;;;;;;4756638;30;20048;-69
2022/12/12 01:40:05;;;;;;;16.42;8.20;;;;;;;;;;4756964;30;20056;-69
2022/12/12 01:42:31;;;;;;;15.68;7.65;;;;;;;;;;4756985;30;20067;-69
2022/12/12 01:44:57;;;;;;;15.80;8.85;;;;;;;;;;4756561;30;20061;-69
2022/12/12 01:47:24;;;;;;;16.08;8.32;;;;;;;;;;4756387;30;20143;-69
2022/12/12 01:50:06;;;;;;;13.45;6.90;;;;;;;;;;4756666;30;20044;-69
2022/12/12 01:52:35;;;;;;;11.90;6.55;;;;;;;;;;4756628;30;20057;-69
2022/12/12 01:55:03;;;;;;;15.77;7.80;;;;;;;;;;4756367;30;20515;-69
2022/12/12 01:57:31;;;;;;;15.55;7.95;;;;;;;;;;4756322;30;20408;-69
2022/12/12 01:59:59;;;;;;;15.25;9.07;;;;;;;;;;4756381;30;20044;-69
2022/12/12 02:02:25;;;;;;;25.33;11.43;;;;;;;;;;4756579;30;20048;-69
2022/12/12 02:04:51;;;;;;;20.58;9.93;;;;;;;;;;4756747;30;20128;-69
2022/12/12 02:07:17;;;;;;;24.48;11.55;;;;;;;;;;4756031;30;20107;-69
2022/12/12 02:09:44;;;;;;;84.05;35.33;;;;;;;;;;4756099;30;20582;-69
2022/12/12 02:12:12;;;;;;;40.97;20.35;;;;;;;;;;4756284;30;20056;-69
2022/12/12 02:14:40;;;;;;;59.85;23.55;;;;;;;;;;4756495;30;20123;-69
2022/12/12 02:17:09;;;;;;;31.33;14.57;;;;;;;;;;4756185;30;20044;-69
2022/12/12 02:19:50;;;;;;;22.48;10.18;;;;;;;;;;4756402;30;20109;-69
2022/12/12 02:22:26;;;;;;;24.23;12.30;;;;;;;;;;4756143;30;20054;-69
2022/12/12 02:25:11;;;;;;;23.45;13.13;;;;;;;;;;4756325;30;20051;-69
2022/12/12 02:27:43;;;;;;;29.63;16.25;;;;;;;;;;4755837;30;20044;-69
2022/12/12 02:30:12;;;;;;;21.75;13.02;;;;;;;;;;4756591;30;20134;-69
2022/12/12 02:32:41;;;;;;;22.85;13.60;;;;;;;;;;4756105;30;20555;-69
2022/12/12 02:35:16;;;;;;;18.77;10.68;;;;;;;;;;4756510;30;20154;-69
2022/12/12 02:37:49;;;;;;;17.38;9.32;;;;;;;;;;4755512;30;20127;-69
2022/12/12 02:40:36;;;;;;;16.75;9.25;;;;;;;;;;4755347;30;20419;-68
2022/12/12 02:43:15;;;;;;;17.15;8.70;;;;;;;;;;4756378;30;20071;-69
2022/12/12 02:45:50;;;;;;;14.10;8.13;;;;;;;;;;4756398;30;20114;-69
2022/12/12 02:48:19;;;;;;;15.88;8.00;;;;;;;;;;4756141;30;20064;-69
2022/12/12 02:50:47;;;;;;;12.93;7.50;;;;;;;;;;4755944;30;20052;-69
2022/12/12 02:53:16;;;;;;;16.35;9.25;;;;;;;;;;4755482;30;20051;-69
2022/12/12 02:55:42;;;;;;;14.93;8.73;;;;;;;;;;4755909;30;20056;-69
2022/12/12 02:58:08;;;;;;;15.95;9.40;;;;;;;;;;4756141;30;20051;-69
2022/12/12 03:00:39;;;;;;;16.58;9.90;;;;;;;;;;4755751;30;20048;-69
2022/12/12 03:08:56;;;;;;;18.30;10.23;;;;;;;;;;4755067;30;20047;-69
2022/12/12 03:11:41;;;;;;;14.27;9.00;;;;;;;;;;4756153;30;20059;-69
2022/12/12 03:14:19;;;;;;;14.20;9.25;;;;;;;;;;4756144;30;20044;-69
2022/12/12 03:17:12;;;;;;;16.45;8.75;;;;;;;;;;4755563;30;20051;-69
2022/12/12 03:19:58;;;;;;;14.45;8.50;;;;;;;;;;4740877;30;20059;-69
2022/12/12 03:22:32;;;;;;;16.17;10.27;;;;;;;;;;4755194;30;20055;-69
2022/12/12 03:25:27;;;;;;;13.20;7.82;;;;;;;;;;4755974;30;20094;-69
2022/12/12 03:27:58;;;;;;;18.50;10.93;;;;;;;;;;4746953;30;20111;-69
2022/12/12 03:30:25;;;;;;;13.85;8.05;;;;;;;;;;4755313;30;20048;-69
2022/12/12 03:33:14;;;;;;;13.05;8.52;;;;;;;;;;4755341;30;20048;-69
2022/12/12 03:35:43;;;;;;;12.10;6.53;;;;;;;;;;4750317;30;20044;-69
2022/12/12 03:38:14;;;;;;;11.75;7.28;;;;;;;;;;4754640;30;20048;-69
2022/12/12 03:40:46;;;;;;;11.35;7.50;;;;;;;;;;4755287;30;20059;-69
2022/12/12 03:43:18;;;;;;;13.93;9.18;;;;;;;;;;4754813;30;20532;-69
2022/12/12 03:45:47;;;;;;;11.57;6.78;;;;;;;;;;4755126;30;20066;-69
2022/12/12 03:48:13;;;;;;;10.88;5.75;;;;;;;;;;4755149;30;20142;-69
2022/12/12 03:50:52;;;;;;;11.98;5.13;;;;;;;;;;4754994;30;20063;-69
2022/12/12 03:53:18;;;;;;;9.02;4.97;;;;;;;;;;4754946;30;20052;-69
2022/12/12 03:55:57;;;;;;;12.23;6.65;;;;;;;;;;4754811;30;20056;-69
2022/12/12 03:58:36;;;;;;;14.48;7.68;;;;;;;;;;4754587;30;20075;-69
2022/12/12 04:01:06;;;;;;;13.10;7.15;;;;;;;;;;4754599;30;20091;-69
2022/12/12 04:03:32;;;;;;;11.25;6.70;;;;;;;;;;4755126;30;20055;-69
2022/12/12 04:14:33;;;;;;;11.20;6.75;;;;;;;;;;4754136;30;20043;-69
2022/12/12 04:17:02;;;;;;;13.43;6.50;;;;;;;;;;4754808;30;20052;-69
2022/12/12 04:25:30;;;;;;;10.68;5.15;;;;;;;;;;4754472;30;20093;-69
2022/12/12 04:27:59;;;;;;;8.50;4.60;;;;;;;;;;4754132;30;20185;-69
2022/12/12 04:30:28;;;;;;;9.68;5.20;;;;;;;;;;4754090;30;20055;-69
2022/12/12 04:33:03;;;;;;;10.25;5.65;;;;;;;;;;4754050;30;20036;-69
2022/12/12 04:35:49;;;;;;;8.50;5.70;;;;;;;;;;4754326;30;20040;-69
2022/12/12 04:38:17;;;;;;;8.20;5.10;;;;;;;;;;4754319;30;20044;-69
2022/12/12 04:40:46;;;;;;;18.73;10.52;;;;;;;;;;4753874;30;20811;-69
2022/12/12 04:43:17;;;;;;;22.73;13.07;;;;;;;;;;4754542;30;20059;-69
2022/12/12 04:45:46;;;;;;;19.75;10.93;;;;;;;;;;4753887;30;20036;-69
2022/12/12 04:48:15;;;;;;;15.63;9.23;;;;;;;;;;4752661;30;20060;-69
2022/12/12 04:50:42;;;;;;;16.75;9.60;;;;;;;;;;4754387;30;20055;-69
2022/12/12 04:53:11;;;;;;;16.60;8.95;;;;;;;;;;4754241;30;20044;-69
2022/12/12 04:55:43;;;;;;;14.02;7.78;;;;;;;;;;4753781;30;20397;-69
2022/12/12 04:58:10;;;;;;;11.48;7.00;;;;;;;;;;4754018;30;20055;-69
2022/12/12 05:00:51;;;;;;;10.40;6.35;;;;;;;;;;4753670;30;20052;-69
2022/12/12 05:03:17;;;;;;;;;;;;;;;;;;4754428;30;20135;-69
2022/12/12 05:05:46;;;;;;;8.75;5.22;;;;;;;;;;4753279;30;20011;-69
2022/12/12 05:08:29;;;;;;;7.57;3.95;;;;;;;;;;4753763;30;20048;-69
2022/12/12 05:10:58;;;;;;;6.75;3.83;;;;;;;;;;4754108;30;20079;-69
2022/12/12 05:13:28;;;;;;;8.13;4.60;;;;;;;;;;4754438;30;20050;-69
2022/12/12 05:15:55;;;;;;;9.98;5.53;;;;;;;;;;4753566;30;20044;-69
2022/12/12 05:18:22;;;;;;;9.30;7.40;;;;;;;;;;4753585;30;20090;-69
2022/12/12 05:20:48;;;;;;;12.73;8.57;;;;;;;;;;4753162;30;20052;-69
2022/12/12 05:23:14;;;;;;;7.45;5.28;;;;;;;;;;4753684;30;20071;-69
2022/12/12 05:25:40;;;;;;;9.57;5.80;;;;;;;;;;4753264;30;20109;-69
2022/12/12 05:28:07;;;;;;;8.73;5.90;;;;;;;;;;4753205;30;20519;-69
2022/12/12 05:30:33;;;;;;;9.02;4.72;;;;;;;;;;4753488;30;20052;-69
2022/12/12 05:32:59;;;;;;;9.70;5.93;;;;;;;;;;4753536;30;20048;-69
2022/12/12 05:35:26;;;;;;;9.10;5.18;;;;;;;;;;4752759;30;20727;-69
2022/12/12 05:37:52;;;;;;;17.48;11.15;;;;;;;;;;4751525;30;20044;-69
2022/12/12 05:40:19;;;;;;;22.33;13.25;;;;;;;;;;4752718;30;20052;-69
2022/12/12 05:42:45;;;;;;;22.70;13.52;;;;;;;;;;4753134;30;20114;-69
2022/12/12 05:45:11;;;;;;;22.92;14.48;;;;;;;;;;4753566;30;20489;-69
2022/12/12 05:47:37;;;;;;;21.02;12.15;;;;;;;;;;4753534;30;20404;-69
2022/12/12 05:50:04;;;;;;;18.60;10.30;;;;;;;;;;4753243;30;20114;-69
2022/12/12 05:52:30;;;;;;;14.38;9.43;;;;;;;;;;4752948;30;20052;-69
2022/12/12 05:54:56;;;;;;;17.73;8.68;;;;;;;;;;4753045;30;20052;-69
2022/12/12 05:57:22;;;;;;;15.57;9.95;;;;;;;;;;4753258;30;20152;-69
2022/12/12 05:59:48;;;;;;;17.40;9.35;;;;;;;;;;4754239;30;20074;-69
2022/12/12 06:02:15;;;;;;;20.10;11.70;;;;;;;;;;4756351;30;20059;-69
2022/12/12 06:04:41;;;;;;;15.02;9.07;;;;;;;;;;4756640;30;20040;-69
2022/12/12 06:07:08;;;;;;;15.70;9.65;;;;;;;;;;4756528;30;20078;-69
2022/12/12 06:09:35;;;;;;;17.90;10.75;;;;;;;;;;4756863;30;20048;-69
2022/12/12 06:12:01;;;;;;;15.80;9.00;;;;;;;;;;4756380;30;20105;-69
2022/12/12 06:14:27;;;;;;;15.10;8.77;;;;;;;;;;4756782;30;20119;-69
2022/12/12 06:16:54;;;;;;;15.82;8.27;;;;;;;;;;4756702;30;20074;-69
2022/12/12 06:19:20;;;;;;;15.65;8.57;;;;;;;;;;4756675;30;20052;-69
2022/12/12 06:21:46;;;;;;;14.32;8.98;;;;;;;;;;4756563;30;20055;-69
2022/12/12 06:24:12;;;;;;;15.35;9.10;;;;;;;;;;4756404;30;20067;-69
2022/12/12 06:26:38;;;;;;;16.42;9.70;;;;;;;;;;4756348;30;20127;-69
2022/12/12 06:29:05;;;;;;;17.30;10.18;;;;;;;;;;4756289;30;20572;-69
2022/12/12 06:31:31;;;;;;;16.65;8.95;;;;;;;;;;4756400;30;20496;-69
2022/12/12 06:33:57;;;;;;;18.33;10.48;;;;;;;;;;4756595;30;20040;-69
2022/12/12 06:36:24;;;;;;;16.67;8.52;;;;;;;;;;4758392;30;20047;-69
2022/12/12 06:38:51;;;;;;;14.05;8.88;;;;;;;;;;4759157;30;20131;-69
2022/12/12 06:41:17;;;;;;;16.90;9.82;;;;;;;;;;4756368;30;20043;-69
2022/12/12 06:43:44;;;;;;;16.33;9.63;;;;;;;;;;4765787;30;20513;-67
2022/12/12 06:46:14;;;;;;;16.45;9.73;;;;;;;;;;4763478;30;20044;-70
2022/12/12 06:48:40;;;;;;;19.80;10.63;;;;;;;;;;4757702;30;20501;-69
2022/12/12 06:51:07;;;;;;;17.00;9.93;;;;;;;;;;4764321;30;20056;-69
2022/12/12 06:53:33;;;;;;;13.95;8.48;;;;;;;;;;4754954;30;20052;-69
2022/12/12 06:55:59;;;;;;;15.52;8.52;;;;;;;;;;4755428;30;20535;-69
2022/12/12 06:58:25;;;;;;;17.58;9.27;;;;;;;;;;4756752;30;20184;-69
2022/12/12 07:00:54;;;;;;;15.68;9.27;;;;;;;;;;4754843;30;20161;-69
2022/12/12 07:03:20;;;;;;;18.63;9.57;;;;;;;;;;4754830;30;20083;-69
2022/12/12 07:05:47;;;;;;;27.23;16.60;;;;;;;;;;4755836;30;20539;-69
2022/12/12 07:08:14;;;;;;;38.60;20.42;;;;;;;;;;4755267;30;20079;-68
2022/12/12 07:10:40;;;;;;;45.63;24.02;;;;;;;;;;4760744;30;20134;-68
2022/12/12 07:13:07;;;;;;;36.65;20.77;;;;;;;;;;4754486;30;20054;-67
2022/12/12 07:15:33;;;;;;;26.83;15.48;;;;;;;;;;4755110;30;20047;-68
2022/12/12 07:17:59;;;;;;;22.02;12.38;;;;;;;;;;4755421;30;20059;-68
2022/12/12 07:20:25;;;;;;;24.33;14.07;;;;;;;;;;4767981;30;20135;-69
2022/12/12 07:22:51;;;;;;;24.13;11.93;;;;;;;;;;4771814;30;20048;-70
2022/12/12 07:25:17;;;;;;;18.90;10.23;;;;;;;;;;4761041;30;20052;-69
2022/12/12 07:27:44;;;;;;;19.10;11.27;;;;;;;;;;4757030;30;20082;-70
2022/12/12 07:30:11;;;;;;;32.35;17.75;;;;;;;;;;4755356;30;20113;-70
2022/12/12 07:32:37;;;;;;;24.50;14.48;;;;;;;;;;4755446;30;20075;-70
2022/12/12 07:35:03;;;;;;;20.48;12.15;;;;;;;;;;4754830;30;20059;-70
2022/12/12 07:37:29;;;;;;;17.80;10.50;;;;;;;;;;4754758;30;20051;-70
2022/12/12 07:39:55;;;;;;;19.83;11.70;;;;;;;;;;4754570;30;20405;-70
2022/12/12 07:42:21;;;;;;;20.85;12.68;;;;;;;;;;4755436;30;20052;-70
2022/12/12 07:44:48;;;;;;;24.60;14.55;;;;;;;;;;4754594;30;20044;-70
2022/12/12 07:47:14;;;;;;;32.63;17.58;;;;;;;;;;4755116;30;20070;-70
2022/12/12 07:49:40;;;;;;;49.80;25.02;;;;;;;;;;4754984;30;20079;-70
2022/12/12 07:52:06;;;;;;;35.95;20.95;;;;;;;;;;4754707;30;20505;-70
2022/12/12 07:54:33;;;;;;;39.88;24.42;;;;;;;;;;4754957;30;20054;-70
2022/12/12 07:56:59;;;;;;;44.63;26.67;;;;;;;;;;4754900;30;20115;-70
2022/12/12 07:59:25;;;;;;;47.33;27.05;;;;;;;;;;4754749;30;20047;-70
2022/12/12 08:01:51;;;;;;;49.83;27.58;;;;;;;;;;4754890;30;20059;-70
2022/12/12 08:04:18;;;;;;;42.60;25.25;;;;;;;;;;4754757;30;20054;-70
2022/12/12 08:06:44;;;;;;;44.22;26.55;;;;;;;;;;4754272;30;20378;-70
2022/12/12 08:09:10;;;;;;;36.40;20.10;;;;;;;;;;4754648;30;20113;-70
2022/12/12 08:11:38;;;;;;;37.55;17.08;;;;;;;;;;4754673;30;20044;-70
2022/12/12 08:14:06;;;;;;;34.55;20.10;;;;;;;;;;4754796;30;20044;-70
2022/12/12 08:16:32;;;;;;;37.08;21.60;;;;;;;;;;4754554;30;20135;-70
2022/12/12 08:18:58;;;;;;;41.58;24.27;;;;;;;;;;4754792;30;20044;-70
2022/12/12 08:21:25;;;;;;;43.95;25.75;;;;;;;;;;4754407;30;20055;-70
2022/12/12 08:23:51;;;;;;;49.63;28.80;;;;;;;;;;4753892;30;20501;-70
2022/12/12 08:26:18;;;;;;;39.33;26.70;;;;;;;;;;4754422;30;20044;-70
2022/12/12 08:28:44;;;;;;;40.17;25.88;;;;;;;;;;4754388;30;20044;-70
2022/12/12 08:31:13;;;;;;;43.60;25.27;;;;;;;;;;4754365;30;20048;-70
2022/12/12 08:33:40;;;;;;;45.10;32.20;;;;;;;;;;4754394;30;20048;-70
2022/12/12 08:36:12;;;;;;;64.60;45.45;;;;;;;;;;4754301;30;20055;-70
2022/12/12 08:38:38;;;;;;;53.45;34.20;;;;;;;;;;4753837;30;20048;-70
2022/12/12 08:41:05;;;;;;;32.25;20.92;;;;;;;;;;4754415;30;20047;-70
2022/12/12 08:43:31;;;;;;;27.50;17.88;;;;;;;;;;4754238;30;20432;-70
2022/12/12 08:46:01;;;;;;;20.58;13.93;;;;;;;;;;4754081;30;20052;-70
2022/12/12 08:48:27;;;;;;;21.70;14.63;;;;;;;;;;4754382;30;20525;-70
2022/12/12 08:50:54;;;;;;;23.10;17.05;;;;;;;;;;4753773;30;20125;-70
2022/12/12 08:53:21;;;;;;;18.75;11.88;;;;;;;;;;4753099;30;20091;-70
2022/12/12 08:55:47;;;;;;;13.32;9.05;;;;;;;;;;4753790;30;20051;-70
2022/12/12 08:58:13;;;;;;;12.30;8.13;;;;;;;;;;4754000;30;20524;-70
2022/12/12 09:00:40;;;;;;;15.65;10.68;;;;;;;;;;4753916;30;20131;-70
2022/12/12 09:03:06;;;;;;;14.30;8.68;;;;;;;;;;4753163;30;20045;-70
2022/12/12 09:05:32;;;;;;;11.38;7.57;;;;;;;;;;4753433;30;20149;-70
2022/12/12 09:07:58;;;;;;;12.65;7.55;;;;;;;;;;4753265;30;20110;-70
2022/12/12 09:10:25;;;;;;;10.52;6.93;;;;;;;;;;4753817;30;20106;-70
2022/12/12 09:12:51;;;;;;;20.23;9.43;;;;;;;;;;4754003;30;20177;-70
2022/12/12 09:15:17;;;;;;;100.40;30.40;;;;;;;;;;4753778;30;20052;-70
2022/12/12 09:17:44;;;;;;;74.95;26.73;;;;;;;;;;4753315;30;20450;-70
2022/12/12 09:20:10;;;;;;;109.80;35.60;;;;;;;;;;4753753;30;20198;-70
2022/12/12 09:22:36;;;;;;;259.63;85.63;;;;;;;;;;4753985;30;20068;-70
2022/12/12 09:25:03;;;;;;;46.55;20.60;;;;;;;;;;4753276;30;20048;-70
2022/12/12 09:27:29;;;;;;;39.75;17.23;;;;;;;;;;4753272;30;20101;-70
2022/12/12 09:29:55;;;;;;;13.13;7.68;;;;;;;;;;4753443;30;20055;-70
2022/12/12 09:32:22;;;;;;;9.98;6.50;;;;;;;;;;4753663;30;20044;-70
2022/12/12 09:34:48;;;;;;;14.95;7.93;;;;;;;;;;4754126;30;20512;-70
2022/12/12 09:37:14;;;;;;;10.68;6.88;;;;;;;;;;4756819;30;20044;-70
2022/12/12 09:39:40;;;;;;;12.30;7.70;;;;;;;;;;4756916;30;20044;-70
2022/12/12 09:42:25;;;;;;;9.35;6.00;;;;;;;;;;4757142;30;20044;-70
2022/12/12 09:44:53;;;;;;;7.18;5.22;;;;;;;;;;4756906;30;20048;-70
2022/12/12 09:47:28;;;;;;;12.68;8.40;;;;;;;;;;4757128;30;20064;-70
2022/12/12 09:49:56;;;;;;;16.60;10.60;;;;;;;;;;4757347;30;20044;-70
2022/12/12 09:52:28;;;;;;;13.48;9.05;;;;;;;;;;4757375;30;20051;-70
2022/12/12 09:54:54;;;;;;;11.95;7.90;;;;;;;;;;4756742;30;20154;-70
2022/12/12 09:57:33;;;;;;;14.07;8.10;;;;;;;;;;4756560;30;20048;-70
2022/12/12 10:00:10;;;;;;;12.40;7.90;;;;;;;;;;4756836;30;20056;-70
2022/12/12 10:02:47;;;;;;;20.80;13.10;;;;;;;;;;4756643;30;20056;-70
2022/12/12 10:05:22;;;;;;;14.20;8.82;;;;;;;;;;4756731;30;20059;-70
2022/12/12 10:07:54;;;;;;;15.90;9.70;;;;;;;;;;4756591;30;20070;-70
2022/12/12 10:10:26;;;;;;;17.45;9.70;;;;;;;;;;4756762;30;20051;-70
2022/12/12 10:12:53;;;;;;;35.15;27.70;;;;;;;;;;4756433;30;20056;-70
2022/12/12 10:15:19;;;;;;;13.77;9.75;;;;;;;;;;4756606;30;20051;-69
2022/12/12 10:17:47;;;;;;;13.93;9.07;;;;;;;;;;4756315;30;20044;-70
2022/12/12 10:20:19;;;;;;;10.38;7.28;;;;;;;;;;4755955;30;20394;-71
2022/12/12 10:22:48;;;;;;;13.10;6.60;;;;;;;;;;4755588;30;20052;-70
2022/12/12 10:25:24;;;;;;;13.05;9.93;;;;;;;;;;4746006;30;20059;-71
2022/12/12 10:27:53;;;;;;;8.77;4.63;;;;;;;;;;4755026;30;20044;-71
2022/12/12 10:30:20;;;;;;;8.73;5.05;;;;;;;;;;4753752;30;20194;-71
2022/12/12 10:32:52;;;;;;;9.45;3.72;;;;;;;;;;4751530;30;20055;-71
2022/12/12 10:35:29;;;;;;;4.57;3.30;;;;;;;;;;4754103;30;20553;-70
2022/12/12 10:38:23;;;;;;;6.68;3.90;;;;;;;;;;4753622;30;20434;-70
2022/12/12 10:40:57;;;;;;;37.90;19.30;;;;;;;;;;4754556;30;20056;-70
2022/12/12 10:43:34;;;;;;;77.70;33.60;;;;;;;;;;4755247;30;20052;-70
2022/12/12 10:46:18;;;;;;;94.53;43.67;;;;;;;;;;4754717;30;20163;-70
2022/12/12 10:48:45;;;;;;;133.52;60.60;;;;;;;;;;4769530;30;20063;-71
2022/12/12 10:51:13;;;;;;;127.30;46.28;;;;;;;;;;4772370;30;20054;-71
2022/12/12 10:53:40;;;;;;;71.05;26.55;;;;;;;;;;4762345;30;20083;-70
2022/12/12 10:56:09;;;;;;;58.58;20.42;;;;;;;;;;4755069;30;20043;-70
2022/12/12 10:58:37;;;;;;;42.13;16.92;;;;;;;;;;4755122;30;20075;-70
2022/12/12 11:01:10;;;;;;;44.30;19.67;;;;;;;;;;4754587;30;20517;-70
2022/12/12 11:03:38;;;;;;;32.35;18.52;;;;;;;;;;4753983;30;20113;-70
2022/12/12 11:06:06;;;;;;;33.70;18.58;;;;;;;;;;4753476;30;20127;-70
2022/12/12 11:08:35;;;;;;;34.38;18.55;;;;;;;;;;4754821;30;20056;-71
2022/12/12 11:11:28;;;;;;;21.75;11.20;;;;;;;;;;4754620;30;20040;-70
2022/12/12 11:13:56;;;;;;;15.55;9.27;;;;;;;;;;4750292;30;20058;-71
2022/12/12 11:16:41;;;;;;;10.90;7.75;;;;;;;;;;4754812;30;20036;-71
2022/12/12 11:19:18;;;;;;;14.68;8.88;;;;;;;;;;4754818;30;20052;-71
2022/12/12 11:21:45;;;;;;;18.60;10.15;;;;;;;;;;4753974;30;20051;-71
2022/12/12 11:24:16;;;;;;;16.00;9.40;;;;;;;;;;4753770;30;20040;-71
2022/12/12 11:26:45;;;;;;;197.07;91.90;;;;;;;;;;4754646;30;20135;-71
2022/12/12 11:29:30;;;;;;;108.65;51.63;;;;;;;;;;4754702;30;20071;-71
2022/12/12 11:31:57;;;;;;;46.20;22.63;;;;;;;;;;4754179;30;20078;-71
2022/12/12 11:34:25;;;;;;;34.60;18.15;;;;;;;;;;4754182;30;20080;-71
2022/12/12 11:36:52;;;;;;;31.13;16.90;;;;;;;;;;4753702;30;20076;-71
2022/12/12 11:39:23;;;;;;;16.20;8.15;;;;;;;;;;4753584;30;20106;-71
2022/12/12 11:42:24;;;;;;;13.45;6.75;;;;;;;;;;4752715;30;20097;-71
2022/12/12 11:45:17;;;;;;;10.95;4.45;;;;;;;;;;4715002;30;20057;-71
2022/12/12 11:47:45;;;;;;;9.52;3.72;;;;;;;;;;4742415;30;20072;-69
2022/12/12 11:50:19;;;;;;;3.30;2.78;;;;;;;;;;4754177;30;20069;-71
2022/12/12 11:52:45;;;;;;;4.85;2.70;;;;;;;;;;4753852;30;20052;-71
2022/12/12 11:55:15;;;;;;;2.22;1.92;;;;;;;;;;4754195;30;20505;-70
2022/12/12 11:58:05;;;;;;;3.35;2.00;;;;;;;;;;4753882;30;20105;-70
2022/12/12 12:00:44;;;;;;;5.85;2.40;;;;;;;;;;4754072;30;20540;-71
2022/12/12 12:03:22;;;;;;;5.40;3.03;;;;;;;;;;4754546;30;20059;-72
2022/12/12 12:05:52;;;;;;;2.67;1.92;;;;;;;;;;4752936;30;20040;-71
2022/12/12 12:08:18;;;;;;;4.17;2.30;;;;;;;;;;4754013;30;20044;-71
2022/12/12 12:11:03;;;;;;;3.92;2.03;;;;;;;;;;4754037;30;20831;-70
2022/12/12 12:13:40;;;;;;;25.55;12.48;;;;;;;;;;4754072;30;20058;-71
2022/12/12 12:16:20;;;;;;;5.38;3.17;;;;;;;;;;4752136;30;20513;-71
2022/12/12 12:18:49;;;;;;;4.55;2.80;;;;;;;;;;4754149;30;20052;-71
2022/12/12 12:21:33;;;;;;;5.60;3.80;;;;;;;;;;4753058;30;20056;-71
2022/12/12 12:24:07;;;;;;;5.38;3.60;;;;;;;;;;4753038;30;20097;-71
2022/12/12 12:26:41;;;;;;;3.28;2.10;;;;;;;;;;4753402;30;20056;-71
2022/12/12 12:29:32;;;;;;;3.95;2.65;;;;;;;;;;4753271;30;20051;-70
2022/12/12 12:32:01;;;;;;;2.42;1.83;;;;;;;;;;4753466;30;20080;-71
2022/12/12 12:34:39;;;;;;;4.05;3.25;;;;;;;;;;4752946;30;20052;-71
2022/12/12 12:37:11;;;;;;;5.60;3.42;;;;;;;;;;4753031;30;20052;-70
2022/12/12 12:39:54;;;;;;;3.53;2.70;;;;;;;;;;4753366;30;20060;-70
2022/12/12 12:42:28;;;;;;;11.57;8.07;;;;;;;;;;4753726;30;20051;-71
2022/12/12 12:44:57;;;;;;;5.18;2.60;;;;;;;;;;4753099;30;20106;-71
2022/12/12 12:47:33;;;;;;;4.75;3.10;;;;;;;;;;4753650;30;20093;-71
2022/12/12 12:50:03;;;;;;;3.10;2.17;;;;;;;;;;4752854;30;20075;-71
2022/12/12 12:52:44;;;;;;;5.60;2.73;;;;;;;;;;4760422;30;20059;-71
2022/12/12 12:55:10;;;;;;;;;;;;;;;;;;4771659;30;20573;-71
2022/12/12 12:57:37;;;;;;;4.30;2.97;;;;;;;;;;4770281;30;19913;-71
2022/12/12 13:00:14;;;;;;;4.00;1.95;;;;;;;;;;4770078;30;20121;-71
2022/12/12 13:02:40;;;;;;;22.92;12.55;;;;;;;;;;4770965;30;20163;-71
2022/12/12 13:05:26;;;;;;;4.35;2.90;;;;;;;;;;4769761;30;20043;-71
2022/12/12 13:08:13;;;;;;;4.07;2.15;;;;;;;;;;4770798;30;20169;-70
2022/12/12 13:10:42;;;;;;;21.42;14.60;;;;;;;;;;4770295;30;20055;-71
2022/12/12 13:13:14;;;;;;;11.93;8.30;;;;;;;;;;4770399;30;20051;-70
2022/12/12 13:15:45;;;;;;;3.25;2.47;;;;;;;;;;4770588;30;20055;-70
2022/12/12 13:18:13;;;;;;;7.07;4.47;;;;;;;;;;4770846;30;20047;-71
2022/12/12 13:20:45;;;;;;;5.55;3.00;;;;;;;;;;4770362;30;20060;-70
2022/12/12 13:23:17;;;;;;;4.47;3.20;;;;;;;;;;4768299;30;20051;-71
2022/12/12 13:25:46;;;;;;;3.45;2.13;;;;;;;;;;4769150;30;20051;-70
2022/12/12 13:28:17;;;;;;;5.15;2.70;;;;;;;;;;4769518;30;20051;-70
2022/12/12 13:30:55;;;;;;;3.30;2.25;;;;;;;;;;4768132;30;20052;-70
2022/12/12 13:33:40;;;;;;;3.42;2.28;;;;;;;;;;4769772;30;20047;-71
2022/12/12 13:36:16;;;;;;;4.55;3.30;;;;;;;;;;4760457;30;20099;-70
2022/12/12 13:38:46;;;;;;;3.00;1.90;;;;;;;;;;4752767;30;20052;-71
2022/12/12 13:41:12;;;;;;;4.63;3.88;;;;;;;;;;4749010;30;20424;-70
2022/12/12 13:43:42;;;;;;;3.67;2.42;;;;;;;;;;4750023;30;20055;-71
2022/12/12 13:46:20;;;;;;;4.28;2.55;;;;;;;;;;4752542;30;20044;-71
2022/12/12 13:49:10;;;;;;;3.25;2.25;;;;;;;;;;4769918;30;20066;-71
2022/12/12 13:51:43;;;;;;;3.40;2.17;;;;;;;;;;4770097;30;20136;-70
2022/12/12 13:54:10;;;;;;;2.58;1.58;;;;;;;;;;4770882;30;20071;-71
2022/12/12 13:56:36;;;;;;;4.90;2.97;;;;;;;;;;4755439;30;20074;-70
2022/12/12 13:59:03;;;;;;;4.28;2.17;;;;;;;;;;4752026;30;20051;-71
2022/12/12 14:01:38;;;;;;;4.90;3.22;;;;;;;;;;4752567;30;20068;-71
2022/12/12 14:04:05;;;;;;;6.18;4.28;;;;;;;;;;4752275;30;20524;-71
2022/12/12 14:06:31;;;;;;;6.40;3.30;;;;;;;;;;4752492;30;20056;-70
2022/12/12 14:08:58;;;;;;;8.68;5.30;;;;;;;;;;4752935;30;20048;-71
2022/12/12 14:11:30;;;;;;;3.55;2.55;;;;;;;;;;4750886;30;20417;-70
2022/12/12 14:14:07;;;;;;;7.82;4.82;;;;;;;;;;4752707;30;20044;-71
2022/12/12 14:16:33;;;;;;;4.57;2.95;;;;;;;;;;4751504;30;20139;-71
2022/12/12 14:19:04;;;;;;;4.35;2.60;;;;;;;;;;4752269;30;20048;-71
2022/12/12 14:21:41;;;;;;;3.80;2.65;;;;;;;;;;4755084;30;20059;-71
2022/12/12 14:24:30;;;;;;;3.60;2.25;;;;;;;;;;4755980;30;20044;-71
2022/12/12 14:26:56;;;;;;;3.95;2.60;;;;;;;;;;4750685;30;20063;-71
2022/12/12 14:29:23;;;;;;;4.40;2.78;;;;;;;;;;4754229;30;20430;-71
2022/12/12 14:31:49;;;;;;;4.72;2.70;;;;;;;;;;4754941;30;20052;-70
2022/12/12 14:34:15;;;;;;;4.78;3.00;;;;;;;;;;4764591;30;20043;-71
2022/12/12 14:37:00;;;;;;;5.43;3.20;;;;;;;;;;4773233;30;20047;-70
2022/12/12 14:39:29;;;;;;;6.25;4.07;;;;;;;;;;4773451;30;20558;-70
2022/12/12 14:41:56;;;;;;;5.75;3.90;;;;;;;;;;4772709;30;20059;-70
2022/12/12 14:44:26;;;;;;;4.72;2.83;;;;;;;;;;4766344;30;20052;-70
2022/12/12 14:46:52;;;;;;;3.58;2.20;;;;;;;;;;4755381;30;20090;-71
2022/12/12 14:49:19;;;;;;;3.60;2.58;;;;;;;;;;4763790;30;20045;-70
2022/12/12 14:51:47;;;;;;;3.28;1.88;;;;;;;;;;4755042;30;20052;-70
2022/12/12 14:54:15;;;;;;;3.08;1.90;;;;;;;;;;4755471;30;20052;-70
2022/12/12 14:56:43;;;;;;;2.75;1.77;;;;;;;;;;4755912;30;20044;-70
2022/12/12 14:59:23;;;;;;;4.47;1.42;;;;;;;;;;4755107;30;20088;-71
2022/12/12 15:01:51;;;;;;;2.63;1.38;;;;;;;;;;4754169;30;20067;-71
2022/12/12 15:04:22;;;;;;;3.25;1.42;;;;;;;;;;4754476;30;20183;-71
2022/12/12 15:06:52;;;;;;;3.25;2.30;;;;;;;;;;4757652;30;20535;-71